Time;durP1;ratioP1;P1;durP2;ratioP2;P2;SDS_P1;SDS_P2;PMS_P1;PMS_P2;Temp;Humidity;BMP_temperature;BMP_pressure;BME280_temperature;BME280_humidity;BME280_pressure;Samples;Min_cycle;Max_cycle;Signal;HPM_P1;HPM_P2
2023/07/11 14:46:14;;;;;;;7.55;3.33;;;32.50;13.10;;;;;;5051803;28;20215;-81
2023/07/11 14:48:48;;;;;;;4.90;2.80;;;32.90;21.90;;;;;;5039531;28;20247;-79
2023/07/11 14:51:19;;;;;;;5.07;3.30;;;33.00;24.60;;;;;;5046255;28;20187;-80
2023/07/11 14:53:48;;;;;;;5.93;3.08;;;33.50;24.70;;;;;;5046082;28;20218;-80
2023/07/11 14:56:35;;;;;;;4.95;3.05;;;33.00;17.70;;;;;;5065364;28;20198;-80
2023/07/11 14:59:23;;;;;;;6.82;3.67;;;31.80;15.90;;;;;;5045582;28;20214;-82
2023/07/11 15:01:58;;;;;;;6.25;3.70;;;32.90;16.10;;;;;;5044473;28;20192;-81
2023/07/11 15:04:36;;;;;;;9.70;4.82;;;33.10;16.10;;;;;;5040447;28;20208;-77
2023/07/11 15:07:09;;;;;;;7.20;4.47;;;33.20;16.20;;;;;;5010626;28;20228;-78
2023/07/11 15:09:39;;;;;;;5.18;3.22;;;33.60;16.80;;;;;;5024616;28;20192;-77
2023/07/11 15:12:14;;;;;;;9.35;6.00;;;33.50;19.50;;;;;;5036110;28;20204;-80
2023/07/11 15:14:45;;;;;;;5.50;3.72;;;33.30;19.10;;;;;;5058645;28;20195;-80
2023/07/11 15:17:33;;;;;;;5.63;3.65;;;33.00;34.20;;;;;;5018163;23;20247;-58
2023/07/11 15:20:00;;;;;;;5.40;4.10;;;33.30;16.30;;;;;;5028280;28;20490;-58
2023/07/11 15:22:27;;;;;;;4.63;3.53;;;33.20;17.10;;;;;;5030207;28;20204;-58
2023/07/11 15:24:54;;;;;;;8.98;4.93;;;33.20;16.10;;;;;;5029666;28;20188;-58
2023/07/11 15:27:23;;;;;;;6.53;3.78;;;33.10;15.80;;;;;;5024383;28;20200;-58
2023/07/11 15:29:49;;;;;;;7.63;3.78;;;33.00;15.60;;;;;;5029070;28;20208;-60
2023/07/11 15:32:20;;;;;;;4.25;3.67;;;32.50;15.70;;;;;;5029607;28;20759;-58
2023/07/11 15:34:47;;;;;;;5.55;3.95;;;32.50;16.60;;;;;;5034149;28;20203;-58
2023/07/11 15:37:15;;;;;;;4.50;3.15;;;32.90;16.50;;;;;;5025866;28;20207;-57
2023/07/11 15:39:43;;;;;;;7.30;3.95;;;33.00;16.50;;;;;;5026322;28;20231;-58
2023/07/11 15:42:29;;;;;;;6.65;3.65;;;33.40;16.30;;;;;;5036087;28;20203;-57
2023/07/11 15:44:59;;;;;;;6.15;4.13;;;33.50;15.70;;;;;;5019689;28;20715;-58
2023/07/11 15:47:26;;;;;;;6.55;3.55;;;33.30;15.10;;;;;;5002957;28;20293;-58
2023/07/11 15:49:53;;;;;;;7.50;3.85;;;33.40;14.90;;;;;;5009546;28;20296;-58
2023/07/11 15:52:21;;;;;;;5.03;3.53;;;33.50;15.00;;;;;;5006851;28;20292;-57
2023/07/11 15:54:48;;;;;;;5.97;3.50;;;33.60;15.30;;;;;;4998836;28;20204;-57
2023/07/11 15:57:23;;;;;;;5.28;3.67;;;33.50;14.50;;;;;;5001831;28;20212;-57
2023/07/11 15:59:50;;;;;;;4.97;3.83;;;33.60;15.70;;;;;;5008743;28;20282;-58
2023/07/11 16:02:20;;;;;;;5.95;3.67;;;33.50;16.20;;;;;;5003791;28;20205;-57
2023/07/11 16:04:47;;;;;;;6.20;3.90;;;33.80;14.40;;;;;;5004818;28;20199;-61
2023/07/11 16:07:17;;;;;;;6.25;3.78;;;33.50;14.00;;;;;;5002910;28;20220;-58
2023/07/11 16:09:45;;;;;;;4.50;3.00;;;33.70;15.10;;;;;;4993151;28;20212;-59
2023/07/11 16:12:16;;;;;;;5.35;3.42;;;33.70;14.10;;;;;;5008603;28;20203;-58
2023/07/11 16:14:43;;;;;;;7.07;4.32;;;33.40;13.70;;;;;;5010465;28;20501;-58
2023/07/11 16:17:18;;;;;;;7.55;4.78;;;33.70;15.50;;;;;;4999904;28;20336;-59
2023/07/11 16:19:48;;;;;;;5.05;3.17;;;33.70;14.20;;;;;;5000158;28;20213;-60
2023/07/11 16:22:21;;;;;;;7.20;4.07;;;33.20;13.60;;;;;;5002459;28;20205;-59
2023/07/11 16:24:49;;;;;;;7.63;4.40;;;33.40;14.20;;;;;;5002432;28;20825;-60
2023/07/11 16:27:17;;;;;;;7.32;4.50;;;33.60;14.00;;;;;;5000685;28;20208;-58
2023/07/11 16:29:46;;;;;;;6.95;4.63;;;33.70;13.60;;;;;;5000296;28;20209;-58
2023/07/11 16:32:14;;;;;;;7.13;4.50;;;33.70;13.50;;;;;;5001654;28;20274;-58
2023/07/11 16:34:43;;;;;;;7.32;4.15;;;33.70;13.40;;;;;;5000985;28;20239;-59
2023/07/11 16:37:20;;;;;;;11.20;6.05;;;33.60;13.90;;;;;;5002629;28;20659;-59
2023/07/11 16:39:48;;;;;;;9.52;4.18;;;33.70;13.80;;;;;;4996139;28;20212;-59
2023/07/11 16:42:21;;;;;;;6.78;4.43;;;33.80;13.50;;;;;;5002204;28;20196;-58
2023/07/11 16:44:49;;;;;;;5.88;3.90;;;33.60;13.30;;;;;;5004736;28;20189;-59
2023/07/11 16:47:18;;;;;;;4.63;3.42;;;33.70;13.60;;;;;;5000611;28;20205;-60
2023/07/11 16:49:50;;;;;;;8.60;3.58;;;33.70;13.40;;;;;;4983879;28;20621;-59
2023/07/11 16:52:17;;;;;;;9.90;3.95;;;33.40;13.30;;;;;;4994412;28;20677;-59
2023/07/11 16:54:47;;;;;;;7.07;4.20;;;33.40;12.60;;;;;;4996336;28;20687;-60
2023/07/11 16:57:17;;;;;;;7.10;4.13;;;33.30;13.60;;;;;;5002128;28;20288;-60
2023/07/11 16:59:45;;;;;;;7.40;3.92;;;33.50;13.10;;;;;;5001036;28;20752;-59
2023/07/11 17:02:23;;;;;;;4.60;3.60;;;33.40;12.60;;;;;;5000731;28;20220;-58
2023/07/11 17:04:52;;;;;;;6.40;4.10;;;33.50;13.10;;;;;;4998335;28;20692;-58
2023/07/11 17:07:23;;;;;;;3.97;3.13;;;33.40;13.20;;;;;;4995804;28;20569;-59
2023/07/11 17:09:50;;;;;;;6.05;3.58;;;33.60;12.90;;;;;;5001164;28;20274;-59
2023/07/11 17:12:17;;;;;;;11.45;3.72;;;33.50;12.70;;;;;;5001635;28;20287;-58
2023/07/11 17:14:44;;;;;;;3.78;3.03;;;33.50;12.30;;;;;;4999292;28;20284;-58
2023/07/11 17:17:20;;;;;;;8.35;4.20;;;33.20;12.10;;;;;;5001201;28;20229;-58
2023/07/11 17:19:52;;;;;;;6.35;4.28;;;33.00;12.30;;;;;;4998383;28;20970;-58
2023/07/11 17:22:19;;;;;;;8.57;4.32;;;32.80;13.60;;;;;;4998460;28;20279;-58
2023/07/11 17:24:47;;;;;;;6.28;4.13;;;32.90;12.40;;;;;;5002039;28;20189;-58
2023/07/11 17:27:22;;;;;;;8.10;4.40;;;32.90;13.00;;;;;;5002155;28;20657;-58
2023/07/11 17:29:53;;;;;;;5.32;3.17;;;32.70;12.50;;;;;;5003106;28;20196;-58
2023/07/11 17:32:25;;;;;;;6.40;4.00;;;32.70;13.30;;;;;;5005036;28;20196;-58
2023/07/11 17:34:52;;;;;;;7.55;4.25;;;32.90;29.20;;;;;;5000660;28;20212;-59
2023/07/11 17:37:31;;;;;;;5.38;4.13;;;32.80;13.50;;;;;;5002169;28;20201;-63
2023/07/11 17:39:58;;;;;;;4.40;3.53;;;32.70;12.40;;;;;;5000327;28;20224;-59
2023/07/11 17:42:27;;;;;;;9.10;4.07;;;32.60;13.60;;;;;;5004228;28;20201;-58
2023/07/11 17:44:55;;;;;;;6.00;3.92;;;32.40;13.90;;;;;;4999428;28;20206;-58
2023/07/11 17:47:26;;;;;;;7.40;4.53;;;32.30;13.30;;;;;;4997498;28;20208;-59
2023/07/11 17:49:57;;;;;;;6.00;3.88;;;32.20;13.70;;;;;;5001816;28;20193;-59
2023/07/11 17:52:30;;;;;;;4.72;3.50;;;32.00;15.10;;;;;;5003661;28;20205;-59
2023/07/11 17:54:57;;;;;;;5.97;3.63;;;31.90;14.70;;;;;;4997680;28;20200;-58
2023/07/11 17:57:32;;;;;;;5.93;3.58;;;31.70;15.30;;;;;;5001675;28;20208;-58
2023/07/11 17:59:59;;;;;;;5.78;3.50;;;31.40;16.10;;;;;;4997355;28;20213;-57
2023/07/11 18:02:28;;;;;;;3.92;2.78;;;31.20;16.10;;;;;;5005429;28;20727;-57
2023/07/11 18:05:04;;;;;;;4.38;2.78;;;31.10;16.90;;;;;;4998815;28;20208;-58
2023/07/11 18:07:37;;;;;;;5.95;3.10;;;31.20;17.20;;;;;;5004540;28;20193;-58
2023/07/11 18:10:14;;;;;;;4.18;3.10;;;31.20;18.40;;;;;;4990797;28;20279;-57
2023/07/11 18:12:41;;;;;;;11.88;3.42;;;31.10;19.00;;;;;;5003867;28;20196;-67
2023/07/11 18:15:10;;;;;;;4.07;3.25;;;30.90;18.60;;;;;;4997838;28;20263;-64
2023/07/11 18:17:37;;;;;;;4.80;2.83;;;30.80;19.00;;;;;;5005619;28;20240;-65
2023/07/11 18:20:31;;;;;;;6.72;3.22;;;30.70;19.60;;;;;;5002127;28;20662;-65
2023/07/11 18:22:58;;;;;;;4.40;2.90;;;30.60;19.90;;;;;;4992916;28;20278;-65
2023/07/11 18:25:25;;;;;;;4.07;2.65;;;30.50;19.70;;;;;;5003538;28;20213;-65
2023/07/11 18:27:53;;;;;;;6.28;2.65;;;30.50;20.20;;;;;;4999212;28;20657;-67
2023/07/11 18:30:23;;;;;;;4.53;2.92;;;30.50;20.10;;;;;;5004245;28;20204;-65
2023/07/11 18:32:51;;;;;;;7.93;3.00;;;30.50;22.10;;;;;;5001108;28;20752;-65
2023/07/11 18:35:18;;;;;;;4.20;2.50;;;30.50;20.80;;;;;;5001484;28;20205;-65
2023/07/11 18:37:47;;;;;;;3.47;2.28;;;30.50;21.10;;;;;;5004361;28;20204;-65
2023/07/11 18:40:29;;;;;;;5.85;2.90;;;30.70;21.50;;;;;;5000143;28;20832;-65
2023/07/11 18:43:01;;;;;;;3.50;2.67;;;30.70;22.80;;;;;;5001697;28;20195;-64
2023/07/11 18:45:28;;;;;;;3.22;2.50;;;30.60;21.90;;;;;;5004128;28;20217;-65
2023/07/11 18:47:56;;;;;;;4.13;2.58;;;30.60;22.70;;;;;;4999631;28;20189;-65
2023/07/11 18:50:33;;;;;;;6.45;2.40;;;30.50;21.30;;;;;;5001783;28;20216;-65
2023/07/11 18:53:00;;;;;;;3.80;2.90;;;30.50;23.00;;;;;;4995043;28;20669;-65
2023/07/11 18:55:27;;;;;;;8.23;2.70;;;30.40;23.00;;;;;;5002897;28;20263;-65
2023/07/11 18:57:55;;;;;;;3.78;2.53;;;30.40;23.00;;;;;;5001414;28;20247;-65
2023/07/11 19:00:37;;;;;;;3.65;2.30;;;30.30;23.40;;;;;;4996325;28;20256;-65
2023/07/11 19:03:08;;;;;;;4.35;2.40;;;30.30;23.90;;;;;;5004783;28;20231;-64
2023/07/11 19:05:37;;;;;;;3.08;2.47;;;30.20;23.70;;;;;;5003049;28;20185;-64
2023/07/11 19:08:19;;;;;;;7.80;2.75;;;30.10;25.50;;;;;;4990708;28;20705;-65
2023/07/11 19:10:47;;;;;;;3.28;2.22;;;30.10;24.50;;;;;;5002328;28;20279;-65
2023/07/11 19:13:15;;;;;;;4.38;2.58;;;30.10;25.20;;;;;;5012187;28;20796;-63
2023/07/11 19:15:43;;;;;;;4.30;2.58;;;29.90;25.30;;;;;;4998417;28;20243;-65
2023/07/11 19:18:21;;;;;;;4.28;3.03;;;29.90;25.40;;;;;;4997837;28;20596;-65
2023/07/11 19:20:49;;;;;;;4.93;2.60;;;29.90;25.20;;;;;;4998461;28;20680;-64
2023/07/11 19:23:26;;;;;;;5.10;2.75;;;29.80;44.50;;;;;;4999272;28;20202;-68
2023/07/11 19:25:54;;;;;;;7.43;2.92;;;29.70;25.60;;;;;;5002415;28;20200;-65
2023/07/11 19:28:28;;;;;;;4.95;2.78;;;29.50;27.10;;;;;;5005033;28;20283;-65
2023/07/11 19:30:58;;;;;;;4.43;2.97;;;29.30;26.60;;;;;;5005200;28;20201;-64
2023/07/11 19:33:25;;;;;;;2.72;2.33;;;29.30;27.00;;;;;;5016436;28;20757;-66
2023/07/11 19:35:55;;;;;;;4.60;2.25;;;29.60;27.10;;;;;;5001030;28;20665;-68
2023/07/11 19:38:27;;;;;;;6.28;2.75;;;30.10;27.90;;;;;;5008098;28;20192;-69
2023/07/11 19:40:55;;;;;;;3.55;2.22;;;30.70;25.90;;;;;;4996448;28;20818;-67
2023/07/11 19:43:22;;;;;;;4.80;2.60;;;30.80;26.20;;;;;;5005293;28;20224;-68
2023/07/11 19:45:55;;;;;;;5.57;3.40;;;31.10;25.10;;;;;;5003295;28;20680;-68
2023/07/11 19:48:25;;;;;;;5.65;3.05;;;31.30;25.60;;;;;;5001649;28;20758;-67
2023/07/11 19:50:54;;;;;;;3.33;2.22;;;30.90;24.80;;;;;;4992400;28;20201;-67
2023/07/11 19:53:23;;;;;;;2.88;2.60;;;30.20;26.50;;;;;;5001159;28;20212;-68
2023/07/11 19:55:52;;;;;;;7.03;2.90;;;29.60;28.90;;;;;;5002525;28;20552;-68
2023/07/11 19:58:22;;;;;;;3.78;2.10;;;29.00;27.90;;;;;;5003277;28;20263;-68
2023/07/11 20:00:54;;;;;;;5.82;2.70;;;28.70;29.80;;;;;;5003197;28;20228;-68
2023/07/11 20:03:21;;;;;;;5.38;2.63;;;28.50;29.60;;;;;;5011011;28;20809;-69
2023/07/11 20:05:48;;;;;;;4.05;2.85;;;28.90;30.20;;;;;;5000021;28;20690;-68
2023/07/11 20:08:22;;;;;;;4.95;3.05;;;29.10;30.40;;;;;;4999457;28;20209;-68
2023/07/11 20:10:52;;;;;;;11.05;4.43;;;29.20;31.00;;;;;;5002606;28;20258;-68
2023/07/11 20:13:21;;;;;;;19.60;6.95;;;29.50;30.90;;;;;;4999507;28;20197;-68
2023/07/11 20:16:08;;;;;;;8.95;5.10;;;29.80;30.30;;;;;;4997289;28;20241;-69
2023/07/11 20:18:35;;;;;;;17.88;7.82;;;29.30;28.40;;;;;;5002873;28;20368;-67
2023/07/11 20:21:06;;;;;;;12.93;7.07;;;28.90;31.20;;;;;;5000346;28;20220;-68
2023/07/11 20:23:38;;;;;;;8.98;5.90;;;29.60;30.80;;;;;;4998796;28;20539;-68
2023/07/11 20:26:17;;;;;;;7.85;4.80;;;30.10;30.00;;;;;;5003325;28;20193;-68
2023/07/11 20:28:44;;;;;;;4.32;3.00;;;30.20;29.50;;;;;;4980438;28;20201;-68
2023/07/11 20:31:12;;;;;;;4.82;2.83;;;29.80;30.00;;;;;;5002658;28;20231;-69
2023/07/11 20:33:41;;;;;;;4.78;2.60;;;28.40;31.90;;;;;;5001207;28;20291;-67
2023/07/11 20:36:14;;;;;;;5.13;2.70;;;28.80;31.30;;;;;;4993053;28;20206;-71
2023/07/11 20:38:41;;;;;;;8.65;3.13;;;29.30;34.90;;;;;;5002051;28;20253;-69
2023/07/11 20:41:11;;;;;;;5.22;2.80;;;28.80;32.90;;;;;;4994005;28;20747;-66
2023/07/11 20:43:39;;;;;;;14.73;8.43;;;28.70;34.00;;;;;;5001211;28;20201;-65
2023/07/11 20:46:13;;;;;;;4.43;3.42;;;27.80;34.60;;;;;;5003040;28;20255;-67
2023/07/11 20:48:42;;;;;;;13.15;5.45;;;28.60;34.70;;;;;;5000786;28;20581;-67
2023/07/11 20:51:15;;;;;;;10.77;6.63;;;29.20;35.70;;;;;;5000763;28;20334;-68
2023/07/11 20:53:44;;;;;;;3.97;2.95;;;29.00;33.50;;;;;;5003874;28;20269;-71
2023/07/11 20:56:21;;;;;;;5.78;3.45;;;28.10;35.20;;;;;;5001304;28;20201;-70
2023/07/11 20:58:50;;;;;;;4.20;2.88;;;27.40;57.40;;;;;;5000814;28;20192;-70
2023/07/11 21:01:19;;;;;;;7.85;2.83;;;27.60;38.50;;;;;;5002715;28;20212;-67
2023/07/11 21:03:47;;;;;;;5.30;3.08;;;27.70;39.20;;;;;;5002321;28;20200;-65
2023/07/11 21:06:26;;;;;;;4.35;2.45;;;27.70;40.40;;;;;;4998666;28;20247;-68
2023/07/11 21:08:53;;;;;;;8.02;2.92;;;27.30;39.30;;;;;;5002201;28;20215;-68
2023/07/11 21:11:20;;;;;;;4.97;2.80;;;26.80;41.00;;;;;;4996912;28;20203;-67
2023/07/11 21:13:48;;;;;;;5.97;2.90;;;26.10;41.30;;;;;;4999302;28;20220;-67
2023/07/11 21:16:15;;;;;;;5.30;3.03;;;25.60;44.90;;;;;;4997969;28;20229;-68
2023/07/11 21:18:42;;;;;;;7.03;2.95;;;25.40;46.40;;;;;;4998839;28;20212;-68
2023/07/11 21:21:10;;;;;;;5.80;2.95;;;25.20;47.10;;;;;;5002119;28;20216;-67
2023/07/11 21:23:37;;;;;;;7.30;2.88;;;25.10;49.70;;;;;;5000361;28;20384;-68
2023/07/11 21:26:16;;;;;;;4.00;2.63;;;25.50;49.80;;;;;;5001920;28;20254;-70
2023/07/11 21:28:45;;;;;;;5.30;3.00;;;25.20;50.70;;;;;;5001074;28;20197;-72
2023/07/11 21:31:16;;;;;;;3.42;2.70;;;25.20;51.30;;;;;;4998086;28;20196;-65
2023/07/11 21:33:45;;;;;;;4.57;3.13;;;25.20;53.60;;;;;;4997466;28;20279;-66
2023/07/11 21:36:16;;;;;;;5.05;3.30;;;25.40;52.80;;;;;;4997596;28;20205;-66
2023/07/11 21:38:43;;;;;;;5.00;3.28;;;25.60;52.60;;;;;;5004103;28;20201;-66
2023/07/11 21:41:16;;;;;;;6.60;3.33;;;25.50;52.70;;;;;;5003026;28;20224;-66
2023/07/11 21:43:43;;;;;;;6.15;3.38;;;25.50;52.60;;;;;;5003233;28;20649;-66
2023/07/11 21:46:40;;;;;;;4.30;2.90;;;25.70;53.10;;;;;;4998745;28;20216;-66
2023/07/11 21:49:10;;;;;;;4.22;2.65;;;25.80;52.80;;;;;;4993063;28;20292;-67
2023/07/11 21:51:37;;;;;;;3.47;2.50;;;25.50;52.40;;;;;;5001846;28;20200;-67
2023/07/11 21:54:04;;;;;;;8.07;3.05;;;25.30;53.80;;;;;;4998239;28;20205;-67
2023/07/11 21:56:31;;;;;;;13.68;7.97;;;25.50;55.00;;;;;;4999996;28;20268;-68
2023/07/11 21:58:58;;;;;;;6.03;3.15;;;25.70;55.00;;;;;;5002599;28;20220;-68
2023/07/11 22:01:29;;;;;;;3.55;2.58;;;25.70;55.10;;;;;;5001137;28;20224;-68
2023/07/11 22:03:56;;;;;;;3.78;2.85;;;25.10;55.70;;;;;;4997120;28;20262;-69
2023/07/11 22:06:26;;;;;;;4.57;2.72;;;24.80;56.90;;;;;;4999894;28;20202;-68
2023/07/11 22:08:54;;;;;;;4.10;2.50;;;25.00;84.30;;;;;;5003467;28;20547;-68
2023/07/11 22:11:22;;;;;;;4.88;2.55;;;25.20;59.70;;;;;;5004415;28;20592;-68
2023/07/11 22:13:49;;;;;;;4.53;2.88;;;25.30;58.50;;;;;;5001347;28;20253;-68
2023/07/11 22:16:22;;;;;;;4.72;3.42;;;25.40;59.20;;;;;;5004670;28;20239;-69
2023/07/11 22:18:49;;;;;;;5.70;3.85;;;25.30;58.90;;;;;;5007106;28;20255;-68
2023/07/11 22:21:18;;;;;;;5.88;3.42;;;25.40;59.00;;;;;;5016926;28;20225;-68
2023/07/11 22:23:46;;;;;;;3.13;2.83;;;25.50;59.10;;;;;;4997556;28;20195;-68
2023/07/11 22:26:16;;;;;;;5.38;3.42;;;25.50;59.40;;;;;;5001768;28;20232;-68
2023/07/11 22:28:44;;;;;;;3.47;2.85;;;25.50;60.00;;;;;;5004373;28;20722;-68
2023/07/11 22:31:11;;;;;;;9.23;3.63;;;25.50;61.10;;;;;;5004377;28;20205;-68
2023/07/11 22:33:38;;;;;;;5.80;3.92;;;25.30;61.50;;;;;;5001686;28;20221;-68
2023/07/11 22:36:05;;;;;;;5.65;3.30;;;25.10;61.90;;;;;;5004065;28;20690;-68
2023/07/11 22:38:32;;;;;;;5.47;2.67;;;24.90;63.40;;;;;;5000051;28;20266;-69
2023/07/11 22:40:59;;;;;;;5.53;3.13;;;24.80;64.00;;;;;;5004496;28;20225;-69
2023/07/11 22:43:29;;;;;;;5.32;3.17;;;24.70;64.30;;;;;;5002983;28;20201;-68
2023/07/11 22:45:57;;;;;;;9.48;3.70;;;24.80;64.70;;;;;;5005220;28;20484;-69
2023/07/11 22:48:26;;;;;;;4.95;3.28;;;24.50;65.10;;;;;;5007146;28;20197;-69
2023/07/11 22:50:58;;;;;;;5.20;3.63;;;24.30;67.30;;;;;;5000536;28;20204;-66
2023/07/11 22:53:28;;;;;;;5.15;3.17;;;24.00;69.10;;;;;;5006371;28;20200;-66
2023/07/11 22:56:01;;;;;;;5.40;3.58;;;23.90;69.50;;;;;;5009622;28;20215;-66
2023/07/11 22:58:32;;;;;;;6.38;3.35;;;24.00;70.10;;;;;;5005398;28;20209;-66
2023/07/11 23:01:02;;;;;;;3.67;2.85;;;24.00;70.80;;;;;;5003058;28;20976;-67
2023/07/11 23:03:30;;;;;;;3.80;3.15;;;24.00;71.50;;;;;;5008815;28;20192;-66
2023/07/11 23:06:25;;;;;;;6.70;3.28;;;23.90;72.10;;;;;;5004038;28;20201;-65
2023/07/11 23:08:53;;;;;;;6.22;3.60;;;24.00;73.60;;;;;;5004622;28;20208;-65
2023/07/11 23:11:21;;;;;;;7.30;4.05;;;24.00;72.30;;;;;;5000264;28;20208;-69
2023/07/11 23:13:48;;;;;;;6.72;4.32;;;23.60;85.30;;;;;;5006377;28;20759;-70
2023/07/11 23:16:29;;;;;;;11.48;3.90;;;23.30;73.80;;;;;;5017138;28;20236;-68
2023/07/11 23:19:01;;;;;;;6.13;3.58;;;23.20;75.10;;;;;;5009664;28;20211;-67
2023/07/11 23:21:29;;;;;;;4.85;3.35;;;23.50;76.80;;;;;;5005507;28;20205;-67
2023/07/11 23:23:56;;;;;;;5.97;4.10;;;23.70;75.00;;;;;;4999038;28;20201;-66
2023/07/11 23:26:24;;;;;;;5.85;3.95;;;23.60;75.10;;;;;;4999426;28;20286;-66
2023/07/11 23:28:51;;;;;;;9.07;4.22;;;23.60;85.70;;;;;;5006811;28;20200;-66
2023/07/11 23:31:19;;;;;;;8.50;3.58;;;23.80;78.20;;;;;;5008123;28;20774;-66
2023/07/11 23:33:46;;;;;;;10.68;4.55;;;24.10;77.30;;;;;;5015925;28;20292;-66
2023/07/11 23:36:22;;;;;;;13.95;6.97;;;24.30;75.20;;;;;;5007935;28;20279;-67
2023/07/11 23:38:51;;;;;;;14.13;5.22;;;24.40;75.00;;;;;;5002468;28;20200;-67
2023/07/11 23:41:18;;;;;;;6.95;4.20;;;24.30;76.20;;;;;;5000362;28;20693;-66
2023/07/11 23:43:46;;;;;;;11.98;5.90;;;24.20;74.40;;;;;;5004286;28;20259;-67
2023/07/11 23:46:26;;;;;;;4.45;3.22;;;24.40;75.80;;;;;;4997295;28;20889;-66
2023/07/11 23:48:54;;;;;;;7.93;3.88;;;24.40;75.70;;;;;;5004750;28;20208;-65
2023/07/11 23:51:23;;;;;;;6.70;2.67;;;24.50;76.40;;;;;;5000504;28;20204;-66
2023/07/11 23:53:51;;;;;;;4.22;2.88;;;24.50;76.20;;;;;;5002030;28;20224;-67
2023/07/11 23:56:36;;;;;;;5.25;2.95;;;24.40;77.60;;;;;;4999584;28;20200;-66
2023/07/11 23:59:02;;;;;;;6.43;3.20;;;24.40;77.90;;;;;;4999659;28;20231;-66
